createdAt,value
2018-05-27T00:00:14.633Z,10.80
2018-05-27T00:02:42.890Z,11.00
2018-05-27T00:05:11.170Z,9.40
2018-05-27T00:07:39.446Z,9.97
2018-05-27T00:10:07.739Z,11.53
2018-05-27T00:12:36.015Z,11.07
2018-05-27T00:15:04.312Z,11.83
2018-05-27T00:17:32.813Z,10.07
2018-05-27T00:20:01.085Z,11.37
2018-05-27T00:22:29.360Z,9.73
2018-05-27T00:24:57.633Z,8.30
2018-05-27T00:27:25.910Z,9.87
2018-05-27T00:29:54.181Z,10.20
2018-05-27T00:32:22.465Z,10.10
2018-05-27T00:34:50.748Z,9.87
2018-05-27T00:37:19.021Z,10.33
2018-05-27T00:39:47.293Z,10.20
2018-05-27T00:42:15.598Z,10.60
2018-05-27T00:44:43.878Z,13.17
2018-05-27T00:47:12.155Z,9.43
2018-05-27T00:49:40.434Z,10.00
2018-05-27T00:52:08.709Z,10.27
2018-05-27T00:54:36.993Z,10.60
2018-05-27T00:57:05.262Z,8.60
2018-05-27T00:59:33.539Z,11.23
2018-05-27T01:02:01.826Z,9.50
2018-05-27T01:04:30.107Z,9.83
2018-05-27T01:06:58.373Z,10.80
2018-05-27T01:09:26.649Z,11.17
2018-05-27T01:11:54.950Z,12.50
2018-05-27T01:14:23.229Z,11.83
2018-05-27T01:16:51.529Z,10.73
2018-05-27T01:19:19.840Z,9.17
2018-05-27T01:21:48.124Z,11.70
2018-05-27T01:24:16.402Z,12.70
2018-05-27T01:26:44.678Z,9.43
2018-05-27T01:29:12.946Z,9.97
2018-05-27T01:34:38.229Z,9.67
2018-05-27T01:37:06.513Z,10.07
2018-05-27T01:39:34.781Z,10.93
2018-05-27T01:42:03.058Z,9.63
2018-05-27T01:44:31.334Z,10.87
2018-05-27T01:46:59.627Z,10.60
2018-05-27T01:49:27.893Z,12.03
2018-05-27T01:51:56.198Z,10.80
2018-05-27T01:54:24.460Z,9.10
2018-05-27T01:56:52.726Z,9.47
2018-05-27T01:59:21.009Z,11.33
2018-05-27T02:01:49.290Z,10.33
2018-05-27T02:04:17.577Z,11.97
2018-05-27T02:06:45.849Z,8.57
2018-05-27T02:09:14.119Z,9.60
2018-05-27T02:11:42.429Z,10.50
2018-05-27T02:14:10.693Z,8.93
2018-05-27T02:16:38.973Z,12.60
2018-05-27T02:19:07.249Z,8.80
2018-05-27T02:21:35.519Z,11.43
2018-05-27T02:24:03.802Z,10.63
2018-05-27T02:26:32.074Z,10.67
2018-05-27T02:29:00.353Z,9.13
2018-05-27T02:31:28.618Z,8.30
2018-05-27T02:33:56.901Z,11.17
2018-05-27T02:36:25.177Z,10.40
2018-05-27T02:38:53.449Z,9.77
2018-05-27T02:41:22.104Z,11.00
2018-05-27T02:43:50.377Z,9.53
2018-05-27T02:46:18.649Z,10.10
2018-05-27T02:48:46.933Z,11.27
2018-05-27T02:51:15.202Z,8.83
2018-05-27T02:53:43.843Z,8.73
2018-05-27T02:56:12.114Z,10.47
2018-05-27T02:58:40.386Z,11.13
2018-05-27T03:01:08.666Z,12.00
2018-05-27T03:03:36.938Z,10.20
2018-05-27T03:06:05.217Z,7.90
2018-05-27T03:08:33.484Z,8.03
2018-05-27T03:11:01.766Z,9.23
2018-05-27T03:13:30.042Z,7.57
2018-05-27T03:15:58.302Z,9.20
2018-05-27T03:18:26.601Z,8.50
2018-05-27T03:20:54.850Z,9.97
2018-05-27T03:23:23.265Z,11.53
2018-05-27T03:25:51.518Z,13.13
2018-05-27T03:28:19.785Z,11.77
2018-05-27T03:30:48.071Z,11.20
2018-05-27T03:33:16.345Z,9.93
2018-05-27T03:35:44.629Z,10.57
2018-05-27T03:38:12.894Z,10.40
2018-05-27T03:40:42.129Z,8.43
2018-05-27T03:43:10.398Z,7.43
2018-05-27T03:45:38.670Z,11.63
2018-05-27T03:48:06.954Z,10.37
2018-05-27T03:50:35.225Z,11.73
2018-05-27T03:53:03.506Z,11.13
2018-05-27T03:55:31.790Z,11.13
2018-05-27T03:58:01.173Z,8.43
2018-05-27T04:00:29.441Z,9.63
2018-05-27T04:02:57.706Z,8.80
2018-05-27T04:05:37.729Z,10.47
2018-05-27T04:08:17.802Z,11.03
2018-05-27T04:10:46.085Z,11.87
2018-05-27T04:13:14.397Z,11.23
2018-05-27T04:15:42.678Z,8.63
2018-05-27T04:18:10.948Z,10.17
2018-05-27T04:20:39.224Z,11.00
2018-05-27T04:23:07.506Z,11.47
2018-05-27T04:25:35.775Z,9.70
2018-05-27T04:28:04.053Z,9.80
2018-05-27T04:30:32.325Z,13.73
2018-05-27T04:33:00.603Z,11.33
2018-05-27T04:35:28.889Z,12.17
2018-05-27T04:37:57.164Z,11.10
2018-05-27T04:40:25.449Z,10.17
2018-05-27T04:42:53.722Z,12.27
2018-05-27T04:45:21.993Z,11.87
2018-05-27T04:47:50.281Z,11.20
2018-05-27T04:50:18.559Z,12.87
2018-05-27T04:52:46.842Z,13.70
2018-05-27T04:55:15.110Z,12.17
2018-05-27T04:57:43.400Z,12.33
2018-05-27T05:00:11.673Z,12.70
2018-05-27T05:02:39.950Z,11.37
2018-05-27T05:05:08.233Z,10.00
2018-05-27T05:07:36.503Z,12.50
2018-05-27T05:10:04.801Z,10.60
2018-05-27T05:12:33.077Z,10.70
2018-05-27T05:15:01.367Z,12.17
2018-05-27T05:17:29.641Z,11.20
2018-05-27T05:19:57.919Z,10.77
2018-05-27T05:22:26.202Z,15.80
2018-05-27T05:24:54.565Z,12.67
2018-05-27T05:27:22.850Z,12.33
2018-05-27T05:29:51.121Z,10.47
2018-05-27T05:32:19.409Z,11.40
2018-05-27T05:34:48.505Z,10.63
2018-05-27T05:37:16.790Z,10.20
2018-05-27T05:39:45.073Z,11.97
2018-05-27T05:42:13.362Z,13.00
2018-05-27T05:44:41.645Z,14.00
2018-05-27T05:47:09.917Z,11.67
2018-05-27T05:49:38.202Z,11.07
2018-05-27T05:52:06.475Z,10.83
2018-05-27T05:54:34.748Z,11.63
2018-05-27T05:57:03.034Z,11.87
2018-05-27T05:59:31.311Z,12.60
2018-05-27T06:01:59.602Z,11.20
2018-05-27T06:04:27.877Z,13.33
2018-05-27T06:06:56.162Z,14.07
2018-05-27T06:09:24.437Z,9.93
2018-05-27T06:11:52.714Z,14.30
2018-05-27T06:14:20.990Z,12.17
2018-05-27T06:16:49.266Z,12.63
2018-05-27T06:19:17.551Z,12.00
2018-05-27T06:21:45.821Z,12.83
2018-05-27T06:24:14.114Z,11.97
2018-05-27T06:26:42.395Z,10.50
2018-05-27T06:29:10.669Z,13.93
2018-05-27T06:31:38.953Z,11.43
2018-05-27T06:34:07.233Z,10.00
2018-05-27T06:36:35.510Z,9.73
2018-05-27T06:39:03.778Z,9.10
2018-05-27T06:41:32.069Z,10.57
2018-05-27T06:44:00.350Z,10.17
2018-05-27T06:46:28.635Z,9.67
2018-05-27T06:48:57.085Z,10.23
2018-05-27T06:51:25.354Z,9.43
2018-05-27T06:53:53.629Z,9.73
2018-05-27T06:56:21.894Z,9.90
2018-05-27T06:58:50.176Z,9.40
2018-05-27T07:01:18.438Z,10.07
2018-05-27T07:03:46.742Z,10.23
2018-05-27T07:06:15.032Z,10.43
2018-05-27T07:08:44.139Z,10.10
2018-05-27T07:11:12.421Z,11.60
2018-05-27T07:13:40.693Z,9.50
2018-05-27T07:16:08.973Z,9.83
2018-05-27T07:18:37.241Z,8.73
2018-05-27T07:21:05.517Z,9.37
2018-05-27T07:23:33.789Z,9.17
2018-05-27T07:26:02.066Z,7.70
2018-05-27T07:28:30.343Z,9.20
2018-05-27T07:30:58.609Z,8.30
2018-05-27T07:33:26.909Z,9.37
2018-05-27T07:35:55.186Z,12.10
2018-05-27T07:38:23.496Z,9.93
2018-05-27T07:40:51.810Z,9.77
2018-05-27T07:43:20.270Z,8.40
2018-05-27T07:45:48.549Z,8.47
2018-05-27T07:48:17.099Z,8.47
2018-05-27T07:50:45.629Z,7.80
2018-05-27T07:53:13.901Z,10.17
2018-05-27T07:55:42.172Z,8.83
2018-05-27T07:58:10.463Z,10.37
2018-05-27T08:00:38.718Z,8.27
2018-05-27T08:03:06.989Z,9.30
2018-05-27T08:05:35.329Z,8.10
2018-05-27T08:08:03.597Z,8.40
2018-05-27T08:10:31.880Z,10.13
2018-05-27T08:13:00.153Z,8.20
2018-05-27T08:15:28.427Z,8.13
2018-05-27T08:17:56.702Z,7.53
2018-05-27T08:20:24.977Z,7.50
2018-05-27T08:22:53.365Z,8.97
2018-05-27T08:25:21.714Z,9.27
2018-05-27T08:27:49.985Z,11.10
2018-05-27T08:30:18.289Z,11.93
2018-05-27T08:32:46.562Z,7.63
2018-05-27T08:35:14.852Z,8.73
2018-05-27T08:37:43.130Z,8.13
2018-05-27T08:40:11.416Z,9.30
2018-05-27T08:42:39.711Z,8.97
2018-05-27T08:45:07.969Z,7.47
2018-05-27T08:47:36.253Z,8.80
2018-05-27T08:50:04.521Z,7.47
2018-05-27T08:52:32.802Z,8.23
2018-05-27T08:55:01.073Z,7.47
2018-05-27T08:57:29.372Z,7.93
2018-05-27T08:59:57.649Z,8.30
2018-05-27T09:02:25.953Z,8.40
2018-05-27T09:04:54.221Z,9.07
2018-05-27T09:07:22.495Z,8.83
2018-05-27T09:09:50.782Z,11.60
2018-05-27T09:12:19.055Z,9.43
2018-05-27T09:14:47.338Z,8.20
2018-05-27T09:17:15.606Z,7.57
2018-05-27T09:19:43.861Z,8.27
2018-05-27T09:22:12.140Z,7.40
2018-05-27T09:24:40.407Z,9.87
2018-05-27T09:27:08.698Z,8.63
2018-05-27T09:29:36.998Z,10.10
2018-05-27T09:32:05.248Z,9.10
2018-05-27T09:34:33.543Z,6.90
2018-05-27T09:37:01.798Z,8.87
2018-05-27T09:39:30.080Z,7.60
2018-05-27T09:41:58.347Z,7.17
2018-05-27T09:44:26.650Z,8.30
2018-05-27T09:46:54.922Z,10.43
2018-05-27T09:49:23.216Z,7.03
2018-05-27T09:51:51.490Z,7.20
2018-05-27T09:54:19.762Z,8.63
2018-05-27T09:56:48.378Z,6.17
2018-05-27T09:59:16.774Z,7.27
2018-05-27T10:01:45.044Z,8.87
2018-05-27T10:04:13.309Z,5.97
2018-05-27T10:06:41.933Z,7.67
2018-05-27T10:09:10.205Z,7.10
2018-05-27T10:11:38.514Z,7.43
2018-05-27T10:14:06.798Z,7.10
2018-05-27T10:16:35.073Z,9.17
2018-05-27T10:19:03.472Z,8.27
2018-05-27T10:21:31.669Z,6.47
2018-05-27T10:23:59.949Z,8.87
2018-05-27T10:26:28.231Z,7.27
2018-05-27T10:29:01.510Z,9.20
2018-05-27T10:31:29.765Z,7.33
2018-05-27T10:33:58.105Z,6.70
2018-05-27T10:36:26.381Z,6.27
2018-05-27T10:38:54.645Z,6.27
2018-05-27T10:41:22.934Z,6.73
2018-05-27T10:43:51.209Z,5.80
2018-05-27T10:46:19.481Z,8.00
2018-05-27T10:48:47.751Z,6.83
2018-05-27T10:51:16.461Z,5.90
2018-05-27T10:53:44.732Z,8.17
2018-05-27T10:56:12.998Z,6.47
2018-05-27T10:58:41.286Z,5.50
2018-05-27T11:01:09.541Z,9.97
2018-05-27T11:03:37.833Z,6.43
2018-05-27T11:06:06.102Z,5.80
2018-05-27T11:08:34.624Z,6.37
2018-05-27T11:11:02.886Z,7.47
2018-05-27T11:13:31.152Z,5.67
2018-05-27T11:15:59.457Z,7.37
2018-05-27T11:18:27.717Z,6.27
2018-05-27T11:20:56.004Z,7.00
2018-05-27T11:23:24.257Z,7.57
2018-05-27T11:25:52.535Z,6.87
2018-05-27T11:28:20.799Z,8.20
2018-05-27T11:30:49.087Z,6.30
2018-05-27T11:33:17.353Z,6.83
2018-05-27T11:35:45.634Z,11.10
2018-05-27T11:38:13.909Z,7.53
2018-05-27T11:40:42.194Z,8.23
2018-05-27T11:43:10.461Z,6.87
2018-05-27T11:45:38.734Z,8.63
2018-05-27T11:48:07.011Z,9.73
2018-05-27T11:50:35.278Z,6.77
2018-05-27T11:53:03.569Z,8.33
2018-05-27T11:55:31.829Z,7.07
2018-05-27T11:58:00.101Z,6.80
2018-05-27T12:00:28.385Z,10.43
2018-05-27T12:02:56.707Z,7.20
2018-05-27T12:05:24.978Z,7.40
2018-05-27T12:07:53.246Z,10.57
2018-05-27T12:10:21.526Z,7.03
2018-05-27T12:12:49.789Z,8.17
2018-05-27T12:15:18.085Z,8.03
2018-05-27T12:17:46.354Z,7.03
2018-05-27T12:20:14.621Z,7.77
2018-05-27T12:22:42.893Z,9.83
2018-05-27T12:25:11.164Z,8.17
2018-05-27T12:27:39.440Z,7.17
2018-05-27T12:30:07.715Z,10.63
2018-05-27T12:32:35.993Z,9.90
2018-05-27T12:35:04.253Z,7.43
2018-05-27T12:37:32.534Z,7.77
2018-05-27T12:40:00.803Z,7.70
2018-05-27T12:42:29.088Z,8.63
2018-05-27T12:44:57.357Z,6.80
2018-05-27T12:47:25.651Z,10.33
2018-05-27T12:49:53.929Z,8.90
2018-05-27T12:52:22.825Z,6.83
2018-05-27T12:54:51.117Z,9.30
2018-05-27T12:57:19.383Z,8.67
2018-05-27T12:59:47.674Z,9.90
2018-05-27T13:02:15.963Z,9.20
2018-05-27T13:04:44.222Z,9.70
2018-05-27T13:07:12.490Z,8.27
2018-05-27T13:09:40.813Z,13.47
2018-05-27T13:12:09.085Z,8.70
2018-05-27T13:14:37.411Z,9.57
2018-05-27T13:17:05.706Z,7.33
2018-05-27T13:19:33.986Z,13.30
2018-05-27T13:22:02.274Z,10.00
2018-05-27T13:24:30.546Z,8.43
2018-05-27T13:26:58.827Z,9.87
2018-05-27T13:29:27.100Z,11.70
2018-05-27T13:31:55.386Z,10.00
2018-05-27T13:34:23.662Z,8.03
2018-05-27T13:36:51.957Z,7.40
2018-05-27T13:39:20.243Z,9.17
2018-05-27T13:41:48.526Z,10.47
2018-05-27T13:44:16.809Z,11.27
2018-05-27T13:46:45.100Z,8.30
2018-05-27T13:49:13.393Z,7.73
2018-05-27T13:51:42.554Z,8.27
2018-05-27T13:54:10.842Z,10.13
2018-05-27T13:56:39.118Z,8.47
2018-05-27T13:59:07.411Z,8.13
2018-05-27T14:01:35.698Z,8.53
2018-05-27T14:04:03.959Z,7.20
2018-05-27T14:06:32.322Z,9.33
2018-05-27T14:09:01.645Z,10.33
2018-05-27T14:11:29.926Z,10.60
2018-05-27T14:13:58.201Z,9.53
2018-05-27T14:16:26.479Z,8.50
2018-05-27T14:18:55.683Z,10.67
2018-05-27T14:21:24.919Z,8.87
2018-05-27T14:23:53.191Z,8.77
2018-05-27T14:26:21.502Z,8.90
2018-05-27T14:28:49.788Z,8.37
2018-05-27T14:31:18.068Z,7.20
2018-05-27T14:33:46.604Z,8.47
2018-05-27T14:36:14.842Z,9.00
2018-05-27T14:38:43.149Z,10.20
2018-05-27T14:41:11.430Z,7.77
2018-05-27T14:43:39.706Z,10.80
2018-05-27T14:46:07.981Z,9.70
2018-05-27T14:48:36.274Z,8.90
2018-05-27T14:51:04.547Z,7.70
2018-05-27T14:53:32.815Z,9.30
2018-05-27T14:56:01.098Z,7.70
2018-05-27T14:58:29.370Z,10.00
2018-05-27T15:00:57.658Z,9.73
2018-05-27T15:03:25.979Z,10.03
2018-05-27T15:05:54.280Z,8.90
2018-05-27T15:08:22.547Z,9.57
2018-05-27T15:10:50.819Z,8.57
2018-05-27T15:13:19.118Z,8.93
2018-05-27T15:15:47.393Z,7.80
2018-05-27T15:18:15.664Z,9.00
2018-05-27T15:20:43.942Z,6.50
2018-05-27T15:23:12.439Z,8.73
2018-05-27T15:25:40.694Z,7.57
2018-05-27T15:28:08.964Z,8.13
2018-05-27T15:30:37.238Z,7.47
2018-05-27T15:33:05.512Z,7.90
2018-05-27T15:35:34.010Z,9.97
2018-05-27T15:38:02.278Z,6.43
2018-05-27T15:40:30.563Z,8.87
2018-05-27T15:42:58.837Z,9.10
2018-05-27T15:45:27.102Z,8.40
2018-05-27T15:47:55.394Z,6.73
2018-05-27T15:50:23.918Z,8.37
2018-05-27T15:52:52.277Z,11.70
2018-05-27T15:55:20.602Z,7.83
2018-05-27T15:57:48.887Z,7.43
2018-05-27T16:00:17.190Z,7.10
2018-05-27T16:02:45.474Z,9.73
2018-05-27T16:05:13.775Z,7.17
2018-05-27T16:07:42.074Z,10.40
2018-05-27T16:10:10.363Z,7.27
2018-05-27T16:12:38.850Z,8.57
2018-05-27T16:15:07.135Z,9.03
2018-05-27T16:17:35.418Z,8.23
2018-05-27T16:20:03.724Z,6.77
2018-05-27T16:22:31.994Z,9.30
2018-05-27T16:25:00.306Z,7.30
2018-05-27T16:27:28.566Z,7.57
2018-05-27T16:29:56.845Z,8.60
2018-05-27T16:32:25.192Z,7.97
2018-05-27T16:34:53.416Z,8.30
2018-05-27T16:37:23.873Z,6.70
2018-05-27T16:39:52.155Z,9.90
2018-05-27T16:42:20.431Z,10.97
2018-05-27T16:44:48.891Z,7.47
2018-05-27T16:47:17.190Z,7.60
2018-05-27T16:49:45.486Z,8.17
2018-05-27T16:52:13.759Z,9.17
2018-05-27T16:54:42.046Z,8.30
2018-05-27T16:57:10.317Z,9.90
2018-05-27T16:59:38.587Z,8.80
2018-05-27T17:02:06.878Z,11.90
2018-05-27T17:04:35.158Z,5.70
2018-05-27T17:07:03.438Z,8.03
2018-05-27T17:09:31.718Z,11.67
2018-05-27T17:12:00.355Z,7.73
2018-05-27T17:14:28.618Z,8.53
2018-05-27T17:16:56.897Z,10.63
2018-05-27T17:19:25.193Z,9.77
2018-05-27T17:21:53.463Z,6.60
2018-05-27T17:24:21.749Z,9.47
2018-05-27T17:26:50.027Z,11.37
2018-05-27T17:29:18.712Z,28.40
2018-05-27T17:31:47.007Z,21.93
2018-05-27T17:34:15.297Z,17.23
2018-05-27T17:36:43.643Z,15.17
2018-05-27T17:39:11.922Z,12.03
2018-05-27T17:41:40.210Z,9.67
2018-05-27T17:44:08.611Z,9.40
2018-05-27T17:46:36.898Z,12.17
2018-05-27T17:49:05.187Z,10.63
2018-05-27T17:51:34.379Z,12.77
2018-05-27T17:54:02.674Z,14.07
2018-05-27T17:56:31.199Z,11.30
2018-05-27T17:58:59.486Z,14.43
2018-05-27T18:01:27.783Z,15.27
2018-05-27T18:03:56.076Z,13.00
2018-05-27T18:06:24.366Z,12.03
2018-05-27T18:08:52.656Z,10.13
2018-05-27T18:11:20.978Z,14.00
2018-05-27T18:13:55.178Z,15.07
2018-05-27T18:16:23.459Z,8.67
2018-05-27T18:18:51.749Z,15.20
2018-05-27T18:21:20.333Z,10.20
2018-05-27T18:23:48.645Z,12.30
2018-05-27T18:26:16.888Z,9.87
2018-05-27T18:28:45.201Z,9.43
2018-05-27T18:31:13.668Z,9.37
2018-05-27T18:33:41.963Z,11.87
2018-05-27T18:36:10.276Z,12.27
2018-05-27T18:38:38.875Z,9.73
2018-05-27T18:41:07.134Z,10.67
2018-05-27T18:43:35.426Z,14.53
2018-05-27T18:46:03.717Z,8.20
2018-05-27T18:48:32.011Z,10.53
2018-05-27T18:51:00.311Z,10.70
2018-05-27T18:53:28.650Z,15.23
2018-05-27T18:55:56.899Z,9.37
2018-05-27T18:58:25.186Z,10.50
2018-05-27T19:00:53.482Z,13.00
2018-05-27T19:03:21.775Z,9.47
2018-05-27T19:05:50.195Z,16.47
2018-05-27T19:08:18.485Z,14.67
2018-05-27T19:10:46.762Z,13.37
2018-05-27T19:13:15.054Z,13.93
2018-05-27T19:15:43.325Z,11.80
2018-05-27T19:18:11.614Z,10.97
2018-05-27T19:20:39.918Z,10.53
2018-05-27T19:23:08.210Z,11.10
2018-05-27T19:25:36.519Z,13.60
2018-05-27T19:28:04.802Z,12.80
2018-05-27T19:30:33.086Z,17.13
2018-05-27T19:33:01.367Z,10.57
2018-05-27T19:35:29.643Z,13.23
2018-05-27T19:37:57.926Z,9.90
2018-05-27T19:40:26.195Z,11.43
2018-05-27T19:42:54.483Z,12.03
2018-05-27T19:45:22.758Z,11.13
2018-05-27T19:47:51.050Z,12.53
2018-05-27T19:50:19.361Z,11.83
2018-05-27T19:52:47.639Z,10.43
2018-05-27T19:55:15.986Z,12.17
2018-05-27T19:57:44.304Z,14.57
2018-05-27T20:00:12.610Z,10.13
2018-05-27T20:02:40.893Z,12.07
2018-05-27T20:05:09.184Z,14.00
2018-05-27T20:07:37.465Z,14.83
2018-05-27T20:10:05.986Z,13.67
2018-05-27T20:12:34.273Z,13.77
2018-05-27T20:15:02.585Z,10.07
2018-05-27T20:17:30.847Z,11.43
2018-05-27T20:19:59.125Z,10.87
2018-05-27T20:22:27.406Z,13.43
2018-05-27T20:24:55.685Z,11.17
2018-05-27T20:27:23.966Z,11.73
2018-05-27T20:29:52.246Z,9.47
2018-05-27T20:32:20.552Z,13.47
2018-05-27T20:34:48.844Z,10.57
2018-05-27T20:37:17.130Z,10.80
2018-05-27T20:39:45.578Z,11.47
2018-05-27T20:42:13.863Z,11.73
2018-05-27T20:44:42.138Z,11.80
2018-05-27T20:47:10.414Z,9.83
2018-05-27T20:49:38.712Z,12.40
2018-05-27T20:52:06.991Z,10.07
2018-05-27T20:54:35.278Z,10.43
2018-05-27T20:57:03.571Z,16.10
2018-05-27T20:59:31.849Z,13.60
2018-05-27T21:02:00.123Z,13.80
2018-05-27T21:04:28.414Z,12.00
2018-05-27T21:06:56.686Z,12.73
2018-05-27T21:09:24.970Z,15.40
2018-05-27T21:11:53.250Z,14.23
2018-05-27T21:14:21.534Z,15.73
2018-05-27T21:16:49.810Z,13.67
2018-05-27T21:19:18.406Z,12.17
2018-05-27T21:21:46.690Z,9.23
2018-05-27T21:24:14.971Z,12.20
2018-05-27T21:26:43.262Z,15.73
2018-05-27T21:29:11.534Z,13.87
2018-05-27T21:31:40.170Z,12.63
2018-05-27T21:34:08.450Z,13.90
2018-05-27T21:36:36.722Z,12.47
2018-05-27T21:39:05.709Z,14.70
2018-05-27T21:41:33.990Z,12.90
2018-05-27T21:44:02.274Z,13.40
2018-05-27T21:46:30.550Z,12.43
2018-05-27T21:48:58.858Z,12.20
2018-05-27T21:51:27.139Z,11.80
2018-05-27T21:53:55.435Z,12.40
2018-05-27T21:56:23.722Z,13.27
2018-05-27T21:58:51.998Z,14.17
2018-05-27T22:01:20.278Z,17.97
2018-05-27T22:03:48.553Z,15.10
2018-05-27T22:06:16.846Z,16.37
2018-05-27T22:08:45.125Z,13.83
2018-05-27T22:11:13.402Z,17.37
2018-05-27T22:13:41.678Z,12.30
2018-05-27T22:16:09.953Z,15.40
2018-05-27T22:18:38.241Z,13.70
2018-05-27T22:21:06.516Z,13.33
2018-05-27T22:23:34.812Z,12.33
2018-05-27T22:26:03.085Z,10.97
2018-05-27T22:28:31.691Z,15.67
2018-05-27T22:30:59.969Z,13.27
2018-05-27T22:33:28.242Z,11.90
2018-05-27T22:35:56.529Z,11.20
2018-05-27T22:38:24.814Z,13.50
2018-05-27T22:40:53.098Z,14.13
2018-05-27T22:43:21.371Z,12.67
2018-05-27T22:45:49.650Z,10.50
2018-05-27T22:48:17.937Z,10.13
2018-05-27T22:50:46.226Z,9.20
2018-05-27T22:53:14.509Z,13.17
2018-05-27T22:55:42.786Z,8.63
2018-05-27T22:58:11.066Z,7.03
2018-05-27T23:00:39.338Z,6.03
2018-05-27T23:03:07.616Z,10.73
2018-05-27T23:05:35.890Z,8.80
2018-05-27T23:08:04.158Z,9.20
2018-05-27T23:10:33.398Z,8.30
2018-05-27T23:13:01.674Z,8.83
2018-05-27T23:15:29.965Z,10.10
2018-05-27T23:17:58.242Z,7.83
2018-05-27T23:20:26.514Z,11.17
2018-05-27T23:22:54.818Z,12.10
2018-05-27T23:25:23.082Z,13.43
2018-05-27T23:27:51.379Z,10.53
2018-05-27T23:30:19.647Z,8.20
2018-05-27T23:32:47.936Z,9.07
2018-05-27T23:35:16.201Z,10.27
2018-05-27T23:37:44.477Z,12.40
2018-05-27T23:40:12.758Z,12.37
2018-05-27T23:42:41.042Z,11.07
2018-05-27T23:45:09.321Z,9.37
2018-05-27T23:47:37.589Z,7.47
2018-05-27T23:50:06.655Z,7.50
2018-05-27T23:52:34.931Z,9.63
2018-05-27T23:55:03.196Z,4.23
2018-05-27T23:57:31.498Z,7.00
2018-05-27T23:59:59.769Z,4.67
